Perryville, Alaska
Current Conditions -  °F | °C
As of 3:16 PM on Friday 24 Oct 2014 (Local Time) from PAJC Reporting Station
Scattered Clouds Scattered Clouds  
Wind Chill: 36°   Ceiling: Unl
Heat Index: 43°   Visibility: 10mi
Dew Point: 30°   Wind: 14mph
Humidity: 61%   Direction: 260°W
Pressure: 30.02"   Gusts: NA
Location:  55.91°N, 159.16°W
Report Text: PAJC 242316Z AUTO 26012KT 10SM SCT029 06/M01 A3002 RMK AO1
Loading
Personal Weather Stations






























Interactive Weather Map
Tropical Storm Tracking
New forecast layout! Learn more

10-Day Weather Forecast

Advertisements
Track Severe Weather on mobile